Maggie, Kentucky
Current Conditions -  °F | °C
As of 1:58 AM on Saturday 20 Dec 2014 (Local Time) from KHOP Reporting Station
Broken Clouds Broken Clouds  
Wind Chill: 24°   Ceiling: 3900
Heat Index: 30°   Visibility: 10mi
Dew Point: 26°   Wind: 6mph
Humidity: 85%   Direction: 10°N
Pressure: 30.24"   Gusts: NA
Location:  36.8031°N, 87.8159°W
Report Text: KHOP 200758Z AUTO 01005KT 10SM BKN039 M01/M03 A3024 RMK AO2 SLP246 T10111033
Loading
Personal Weather Stations






























Interactive Weather Map New forecast layout! Learn more

10-Day Weather Forecast

Advertisements
Track Severe Weather on mobile